WIDN/TNJ METAR and TAF weather

Enter ICAO airport designator
Station Type Date Time Source
WIDN METAR 2022/01/27 23:30 UTC NOAA

WIDN 272330Z 05002KT 6000 FEW017 23/21 Q1011 NOSIG


Station Type Date Time Source
WIDN Decoded METAR 2022/01/27 23:30 UTC NOAA

Station name not available
Jan 27, 2022 - 06:30 PM EST / 2022.01.27 2330 UTC
Wind: from the NE (050 degrees) at 2 MPH (2 KT):0
Visibility: 3 mile(s):0
Sky conditions: mostly clear
Temperature: 73 F (23 C)
Dew Point: 69 F (21 C)
Relative Humidity: 88%
Pressure (altimeter): 29.85 in. Hg (1011 hPa)
ob: WIDN 272330Z 05002KT 6000 FEW017 23/21 Q1011 NOSIG
cycle: 23

Station Type Date Time Source
WIDN TAF 2011/04/08 06:00 UTC NOAA

TAF WIDN 080500Z 0806/0818 04010KT 9000 SCT020
BECMG 35010KT

Example: see airport list